Time;durP1;ratioP1;P1;durP2;ratioP2;P2;SDS_P1;SDS_P2;PMS_P1;PMS_P2;Temp;Humidity;BMP_temperature;BMP_pressure;BME280_temperature;BME280_humidity;BME280_pressure;Samples;Min_cycle;Max_cycle;Signal;HPM_P1;HPM_P2
2022/11/17 00:00:37;;;;;;;0.15;0.10;;;;;;;7.18;100.00;94560.72;4965831;28;20054;-78
2022/11/17 00:03:25;;;;;;;0.10;0.10;;;;;;;7.09;100.00;94557.81;4968496;28;20302;-78
2022/11/17 00:06:13;;;;;;;0.10;0.10;;;;;;;7.06;100.00;94554.91;4969022;28;20054;-78
2022/11/17 00:08:59;;;;;;;0.10;0.10;;;;;;;7.07;100.00;94553.81;4967181;28;20407;-77
2022/11/17 00:14:54;;;;;;;0.10;0.10;;;;;;;7.11;100.00;94547.69;4951732;28;20582;-78
2022/11/17 00:17:39;;;;;;;0.10;0.10;;;;;;;7.11;100.00;94525.63;4955505;28;20576;-79
2022/11/17 00:23:45;;;;;;;0.10;0.10;;;;;;;7.27;100.00;94503.19;4948384;28;20046;-75
2022/11/17 00:26:32;;;;;;;;;;;;;;;7.11;100.00;94504.34;4935265;28;20655;-75
2022/11/17 00:29:18;;;;;;;0.10;0.10;;;;;;;7.03;100.00;94500.41;4952300;28;19922;-77
2022/11/17 00:35:09;;;;;;;0.10;0.10;;;;;;;6.97;100.00;94486.31;4962080;28;20396;-78
2022/11/17 00:38:14;;;;;;;0.10;0.10;;;;;;;7.11;100.00;94483.06;4952000;28;20088;-79
2022/11/17 00:41:03;;;;;;;0.10;0.10;;;;;;;7.03;100.00;94478.34;4958795;28;21547;-76
2022/11/17 00:43:49;;;;;;;0.10;0.10;;;;;;;6.97;100.00;94470.38;4970532;28;20345;-77
2022/11/17 00:46:36;;;;;;;0.10;0.10;;;;;;;7.02;100.00;94461.59;4957612;28;20058;-77
2022/11/17 00:49:25;;;;;;;0.10;0.10;;;;;;;7.00;100.00;94455.72;4957474;28;20275;-76
2022/11/17 00:52:11;;;;;;;0.10;0.10;;;;;;;6.98;100.00;94461.31;4971769;28;20522;-76
2022/11/17 00:54:57;;;;;;;0.10;0.10;;;;;;;6.97;100.00;94451.75;4974731;28;20045;-77
2022/11/17 00:57:42;;;;;;;0.10;0.10;;;;;;;6.98;100.00;94450.69;4967070;28;20042;-75
2022/11/17 01:00:28;;;;;;;0.15;0.15;;;;;;;7.01;100.00;94438.72;4961053;28;20196;-76
2022/11/17 01:03:14;;;;;;;0.10;0.10;;;;;;;6.97;100.00;94427.81;4967873;28;20050;-75
2022/11/17 01:06:07;;;;;;;0.10;0.10;;;;;;;6.97;100.00;94429.69;4976796;28;20041;-76
2022/11/17 01:08:53;;;;;;;0.20;0.20;;;;;;;6.96;100.00;94426.25;4964590;28;20073;-77
2022/11/17 01:11:39;;;;;;;0.10;0.10;;;;;;;6.89;100.00;94433.72;4973423;28;20037;-77
2022/11/17 01:14:28;;;;;;;0.10;0.10;;;;;;;6.95;100.00;94437.16;4964176;28;20479;-77
2022/11/17 01:17:15;;;;;;;0.10;0.10;;;;;;;6.94;100.00;94412.44;4964160;28;20051;-77
2022/11/17 01:20:03;;;;;;;0.10;0.10;;;;;;;6.97;100.00;94413.72;4965538;28;20334;-78
2022/11/17 01:22:49;;;;;;;0.10;0.10;;;;;;;6.89;100.00;94412.44;4939537;28;20136;-76
2022/11/17 01:25:37;;;;;;;0.10;0.10;;;;;;;6.92;100.00;94406.56;4981567;28;20073;-76
2022/11/17 01:28:22;;;;;;;0.10;0.10;;;;;;;6.92;100.00;94414.53;4979053;28;20260;-75
2022/11/17 01:31:17;;;;;;;0.10;0.10;;;;;;;6.97;100.00;94403.88;4981325;28;20495;-77
2022/11/17 01:34:03;;;;;;;0.10;0.10;;;;;;;6.93;100.00;94400.22;4981478;28;20042;-77
2022/11/17 01:39:53;;;;;;;0.10;0.10;;;;;;;6.88;100.00;94394.13;4980650;28;20062;-76
2022/11/17 01:42:39;;;;;;;0.10;0.10;;;;;;;6.86;100.00;94385.63;4980446;28;20530;-76
2022/11/17 01:45:25;;;;;;;0.10;0.10;;;;;;;6.91;100.00;94390.91;4981947;28;20125;-76
2022/11/17 01:48:13;;;;;;;0.10;0.10;;;;;;;6.90;100.00;94376.00;4979204;28;20042;-76
2022/11/17 01:50:59;;;;;;;0.10;0.10;;;;;;;6.95;100.00;94365.34;4981383;28;20579;-77
2022/11/17 01:53:49;;;;;;;0.10;0.10;;;;;;;6.94;100.00;94351.28;4969431;28;20288;-75
2022/11/17 01:56:40;;;;;;;0.10;0.10;;;;;;;6.90;100.00;94341.44;4975938;28;20034;-75
2022/11/17 01:59:38;;;;;;;0.20;0.20;;;;;;;6.81;100.00;94338.59;4982212;28;20092;-76
2022/11/17 02:02:24;;;;;;;0.10;0.10;;;;;;;6.91;100.00;94329.75;4979889;28;20331;-76
2022/11/17 02:05:15;;;;;;;0.10;0.10;;;;;;;6.85;100.00;94323.69;4980163;28;20142;-77
2022/11/17 02:08:05;;;;;;;0.10;0.10;;;;;;;6.78;100.00;94325.84;4978537;28;20049;-76
2022/11/17 02:10:52;;;;;;;0.10;0.10;;;;;;;6.85;100.00;94314.91;4980036;28;20045;-76
2022/11/17 02:13:39;;;;;;;0.10;0.10;;;;;;;6.77;100.00;94316.31;4979230;28;20049;-75
2022/11/17 02:16:25;;;;;;;0.10;0.10;;;;;;;6.82;100.00;94305.63;4966945;28;20148;-76
2022/11/17 02:19:15;;;;;;;0.20;0.20;;;;;;;6.79;100.00;94314.16;4972650;28;20507;-76
2022/11/17 02:22:22;;;;;;;0.10;0.10;;;;;;;6.83;100.00;94304.53;4979085;28;20062;-76
2022/11/17 02:25:39;;;;;;;0.10;0.10;;;;;;;6.83;100.00;94285.94;4976467;28;20077;-76
2022/11/17 02:28:29;;;;;;;0.10;0.10;;;;;;;6.80;100.00;94297.13;4972840;28;20512;-78
2022/11/17 02:31:57;;;;;;;0.10;0.10;;;;;;;6.76;100.00;94288.09;4969469;28;20487;-76
2022/11/17 02:34:51;;;;;;;0.10;0.10;;;;;;;6.79;100.00;94276.16;4967195;28;20038;-77
2022/11/17 02:38:00;;;;;;;0.10;0.10;;;;;;;6.90;100.00;94277.66;4967184;28;20331;-77
2022/11/17 02:41:15;;;;;;;0.10;0.10;;;;;;;6.84;100.00;94273.44;4965090;28;20064;-76
2022/11/17 02:44:29;;;;;;;0.10;0.10;;;;;;;6.86;100.00;94266.78;4966133;28;20145;-75
2022/11/17 02:47:21;;;;;;;0.10;0.10;;;;;;;6.82;100.00;94260.41;4961721;28;20042;-78
2022/11/17 02:50:09;;;;;;;0.10;0.10;;;;;;;6.83;100.00;94269.19;4966251;28;20144;-78
2022/11/17 02:52:55;;;;;;;0.10;0.10;;;;;;;6.83;100.00;94262.00;4962887;28;20418;-77
2022/11/17 02:55:53;;;;;;;0.10;0.10;;;;;;;6.89;100.00;94262.75;4966447;28;20555;-77
2022/11/17 02:58:40;;;;;;;0.10;0.10;;;;;;;6.84;100.00;94263.59;4971625;28;20232;-77
2022/11/17 03:01:45;;;;;;;0.10;0.10;;;;;;;6.85;100.00;94249.25;4958220;28;20085;-77
2022/11/17 03:04:58;;;;;;;0.10;0.10;;;;;;;6.87;100.00;94249.75;4967445;28;20480;-77
2022/11/17 03:08:11;;;;;;;0.10;0.10;;;;;;;6.90;100.00;94241.22;4966075;28;20096;-78
2022/11/17 03:11:02;;;;;;;0.10;0.10;;;;;;;6.88;100.00;94251.34;4952151;28;20569;-75
2022/11/17 03:14:05;;;;;;;0.10;0.10;;;;;;;6.74;100.00;94249.59;4970675;28;20136;-77
2022/11/17 03:17:10;;;;;;;0.10;0.10;;;;;;;6.80;100.00;94230.66;4963548;28;20038;-77
2022/11/17 03:20:03;;;;;;;0.10;0.10;;;;;;;6.85;100.00;94230.63;4963886;28;20267;-77
2022/11/17 03:23:00;;;;;;;0.10;0.10;;;;;;;6.74;100.00;94223.00;4969038;28;20175;-76
2022/11/17 03:25:52;;;;;;;0.10;0.10;;;;;;;6.69;100.00;94216.69;4958086;28;20126;-76
2022/11/17 03:28:40;;;;;;;0.10;0.10;;;;;;;6.69;100.00;94218.50;4956906;28;20376;-76
2022/11/17 03:31:28;;;;;;;0.10;0.10;;;;;;;6.76;100.00;94218.19;4956485;28;20050;-76
2022/11/17 03:34:18;;;;;;;0.10;0.10;;;;;;;6.77;100.00;94217.94;4955858;28;20042;-76
2022/11/17 03:37:08;;;;;;;0.10;0.10;;;;;;;6.79;100.00;94210.47;4962774;28;20514;-74
2022/11/17 03:40:00;;;;;;;0.13;0.13;;;;;;;6.85;100.00;94205.94;4965880;28;20042;-76
2022/11/17 03:42:51;;;;;;;0.10;0.10;;;;;;;6.80;100.00;94209.41;4967820;28;20299;-76
2022/11/17 03:45:41;;;;;;;0.10;0.10;;;;;;;6.80;100.00;94205.97;4953822;28;20042;-74
2022/11/17 03:48:49;;;;;;;0.10;0.10;;;;;;;6.81;100.00;94205.66;4962309;28;20057;-76
2022/11/17 03:51:35;;;;;;;0.10;0.10;;;;;;;6.89;100.00;94181.13;4951113;28;20046;-74
2022/11/17 03:54:22;;;;;;;0.10;0.10;;;;;;;6.85;100.00;94179.34;4955468;28;20140;-76
2022/11/17 03:57:16;;;;;;;0.10;0.10;;;;;;;6.92;100.00;94187.75;4960679;28;20050;-76
2022/11/17 04:00:06;;;;;;;0.10;0.10;;;;;;;6.80;100.00;94198.78;4969829;28;20044;-77
2022/11/17 04:03:00;;;;;;;0.10;0.10;;;;;;;6.79;100.00;94191.09;4963776;28;20049;-75
2022/11/17 04:05:46;;;;;;;0.10;0.10;;;;;;;6.79;100.00;94191.88;4965484;28;20044;-76
2022/11/17 04:08:32;;;;;;;0.10;0.10;;;;;;;6.85;100.00;94174.81;4951623;28;20050;-77
2022/11/17 04:17:27;;;;;;;0.10;0.10;;;;;;;6.84;100.00;94165.22;4955806;28;20048;-77
2022/11/17 04:20:13;;;;;;;0.10;0.10;;;;;;;6.83;100.00;94170.81;4955311;28;20053;-77
2022/11/17 04:23:10;;;;;;;0.10;0.10;;;;;;;6.92;100.00;94185.09;4955272;28;20050;-78
2022/11/17 04:29:04;;;;;;;0.10;0.10;;;;;;;6.84;100.00;94189.16;4966171;28;20446;-77
2022/11/17 04:31:50;;;;;;;0.10;0.10;;;;;;;6.94;100.00;94170.47;4960953;28;20061;-76
2022/11/17 04:34:39;;;;;;;0.10;0.10;;;;;;;6.89;100.00;94143.91;4965936;28;20052;-76
2022/11/17 04:37:25;;;;;;;0.10;0.10;;;;;;;6.92;100.00;94161.16;4967383;28;20050;-76
2022/11/17 04:40:11;;;;;;;0.10;0.10;;;;;;;6.97;100.00;94171.75;4962308;28;20065;-77
2022/11/17 04:42:57;;;;;;;0.10;0.10;;;;;;;6.87;100.00;94163.91;4976599;28;20050;-74
2022/11/17 04:45:43;;;;;;;0.10;0.10;;;;;;;6.83;100.00;94160.97;4972052;28;20969;-77
2022/11/17 04:48:28;;;;;;;0.10;0.10;;;;;;;6.91;100.00;94151.59;4972515;28;20077;-77
2022/11/17 04:51:15;;;;;;;0.10;0.10;;;;;;;6.90;100.00;94155.34;4975605;28;20332;-76
2022/11/17 04:54:02;;;;;;;0.10;0.10;;;;;;;6.88;100.00;94163.59;4970497;28;20057;-77
2022/11/17 04:56:53;;;;;;;0.10;0.10;;;;;;;6.91;100.00;94148.94;4970154;28;20366;-77
2022/11/17 04:59:39;;;;;;;0.13;0.13;;;;;;;6.92;100.00;94146.00;4962618;28;21461;-77
2022/11/17 05:02:25;;;;;;;0.10;0.10;;;;;;;6.92;100.00;94151.31;4958355;28;21261;-77
2022/11/17 05:05:16;;;;;;;0.10;0.10;;;;;;;6.90;100.00;94144.72;4955823;28;20125;-75
2022/11/17 05:08:01;;;;;;;0.10;0.10;;;;;;;6.89;100.00;94149.25;4978258;28;20236;-76
2022/11/17 05:13:52;;;;;;;0.10;0.10;;;;;;;6.89;100.00;94140.47;4964220;28;20038;-76
2022/11/17 05:19:44;;;;;;;0.10;0.10;;;;;;;6.85;100.00;94132.28;4978754;28;20113;-78
2022/11/17 05:25:35;;;;;;;0.10;0.10;;;;;;;6.95;100.00;94136.69;4973058;28;20034;-77
2022/11/17 05:28:21;;;;;;;0.10;0.10;;;;;;;6.93;100.00;94134.31;4980740;28;20149;-77
2022/11/17 05:31:07;;;;;;;0.10;0.10;;;;;;;6.94;100.00;94135.91;4974947;28;20042;-76
2022/11/17 05:33:53;;;;;;;0.10;0.10;;;;;;;6.90;100.00;94131.41;4963198;28;20647;-77
2022/11/17 05:36:40;;;;;;;0.10;0.10;;;;;;;6.83;100.00;94121.13;4958149;28;20056;-76
2022/11/17 05:39:26;;;;;;;0.10;0.10;;;;;;;6.87;100.00;94116.03;4962814;28;20510;-75
2022/11/17 05:42:12;;;;;;;0.10;0.10;;;;;;;6.88;100.00;94109.66;4970696;28;20134;-77
2022/11/17 05:44:58;;;;;;;0.10;0.10;;;;;;;6.86;100.00;94112.59;4971699;28;20360;-77
2022/11/17 05:47:44;;;;;;;0.10;0.10;;;;;;;6.76;100.00;94117.19;4966539;28;20081;-78
2022/11/17 05:50:30;;;;;;;0.10;0.10;;;;;;;6.80;100.00;94112.91;4968188;28;20042;-76
2022/11/17 05:53:21;;;;;;;0.20;0.20;;;;;;;6.72;100.00;94124.94;4964264;28;20116;-78
2022/11/17 05:56:29;;;;;;;0.10;0.10;;;;;;;6.69;100.00;94107.72;4962910;28;20096;-77
2022/11/17 05:59:17;;;;;;;0.10;0.10;;;;;;;6.68;100.00;94124.69;4964547;28;20074;-78
2022/11/17 06:02:28;;;;;;;0.10;0.10;;;;;;;6.72;100.00;94119.63;4967679;28;20940;-78
2022/11/17 06:05:15;;;;;;;0.10;0.10;;;;;;;6.77;100.00;94126.75;4954186;28;20042;-79
2022/11/17 06:08:05;;;;;;;0.10;0.10;;;;;;;6.77;100.00;94129.41;4963669;28;20867;-78
2022/11/17 06:10:51;;;;;;;0.10;0.10;;;;;;;6.77;100.00;94119.59;4959847;28;20129;-77
2022/11/17 06:13:40;;;;;;;0.10;0.10;;;;;;;6.81;100.00;94117.94;4951079;28;20081;-76
2022/11/17 06:16:31;;;;;;;0.10;0.10;;;;;;;6.85;100.00;94128.81;4957165;28;20286;-79
2022/11/17 06:19:28;;;;;;;0.10;0.10;;;;;;;6.88;100.00;94129.03;4961993;28;20445;-75
2022/11/17 06:22:14;;;;;;;0.10;0.10;;;;;;;6.92;100.00;94131.91;4959842;28;20046;-79
2022/11/17 06:25:03;;;;;;;0.10;0.10;;;;;;;6.89;100.00;94138.59;4974081;28;20653;-78
2022/11/17 06:27:51;;;;;;;0.20;0.20;;;;;;;6.86;100.00;94136.53;4966606;28;20081;-78
2022/11/17 06:30:38;;;;;;;0.10;0.10;;;;;;;6.89;100.00;94135.16;4974909;28;20042;-79
2022/11/17 06:33:27;;;;;;;0.17;0.17;;;;;;;6.86;100.00;94125.88;4965167;28;21388;-77
2022/11/17 06:36:19;;;;;;;0.10;0.10;;;;;;;6.84;100.00;94128.00;4949579;28;20046;-78
2022/11/17 06:39:05;;;;;;;0.10;0.10;;;;;;;6.77;100.00;94119.59;4970021;28;20263;-77
2022/11/17 06:41:51;;;;;;;0.10;0.10;;;;;;;6.82;100.00;94118.75;4962532;28;20517;-77
2022/11/17 06:44:39;;;;;;;0.10;0.10;;;;;;;6.79;100.00;94122.75;4968426;28;20530;-77
2022/11/17 06:47:25;;;;;;;0.10;0.10;;;;;;;6.83;100.00;94120.31;4959626;28;20077;-78
2022/11/17 06:50:11;;;;;;;0.10;0.10;;;;;;;6.86;100.00;94141.03;4955103;28;20045;-79
2022/11/17 06:52:58;;;;;;;0.17;0.17;;;;;;;6.86;100.00;94144.50;4960266;28;20070;-77
2022/11/17 06:56:05;;;;;;;0.10;0.10;;;;;;;6.90;100.00;94136.72;4960253;28;20052;-78
2022/11/17 06:58:53;;;;;;;0.10;0.10;;;;;;;6.82;100.00;94118.75;4951739;28;21252;-78
2022/11/17 07:01:39;;;;;;;0.10;0.10;;;;;;;6.81;100.00;94109.97;4966070;28;21028;-78
2022/11/17 07:04:24;;;;;;;0.10;0.10;;;;;;;6.79;100.00;94120.09;4936489;28;20053;-76
2022/11/17 07:07:11;;;;;;;0.20;0.20;;;;;;;6.88;100.00;94131.69;4956883;28;20049;-77
2022/11/17 07:09:57;;;;;;;0.10;0.10;;;;;;;6.89;100.00;94111.22;4972286;28;20515;-79
2022/11/17 07:12:44;;;;;;;0.10;0.10;;;;;;;6.88;100.00;94117.63;4976717;28;20042;-79
2022/11/17 07:15:31;;;;;;;0.10;0.10;;;;;;;6.89;100.00;94122.66;4969805;28;20268;-78
2022/11/17 07:18:18;;;;;;;0.20;0.20;;;;;;;6.89;100.00;94113.88;4977883;28;20392;-77
2022/11/17 07:21:06;;;;;;;0.10;0.10;;;;;;;6.92;100.00;94131.91;4980442;28;20541;-79
2022/11/17 07:23:52;;;;;;;0.10;0.10;;;;;;;6.89;100.00;94127.19;4979414;28;20061;-79
2022/11/17 07:26:38;;;;;;;0.10;0.10;;;;;;;6.90;100.00;94123.44;4983060;28;20403;-78
2022/11/17 07:29:24;;;;;;;0.10;0.10;;;;;;;6.89;100.00;94117.34;4983278;28;20049;-77
2022/11/17 07:32:12;;;;;;;0.10;0.10;;;;;;;6.92;100.00;94119.41;4619337;28;10000153;-76
2022/11/17 07:35:00;;;;;;;0.10;0.10;;;;;;;6.94;100.00;94127.13;4977830;28;20128;-77
2022/11/17 07:37:46;;;;;;;0.10;0.10;;;;;;;6.99;100.00;94132.38;4976751;28;20046;-79
2022/11/17 07:40:32;;;;;;;0.10;0.10;;;;;;;6.95;100.00;94124.19;4980969;28;20474;-77
2022/11/17 07:43:18;;;;;;;0.10;0.10;;;;;;;7.01;100.00;94119.63;4971755;28;20438;-79
2022/11/17 07:46:12;;;;;;;0.10;0.10;;;;;;;7.02;100.00;94115.88;4979184;28;20177;-79
2022/11/17 07:48:58;;;;;;;0.10;0.10;;;;;;;7.03;100.00;94119.34;4980393;28;20125;-79
2022/11/17 07:51:44;;;;;;;0.10;0.10;;;;;;;6.96;100.00;94109.03;4984330;28;20049;-78
2022/11/17 07:54:30;;;;;;;0.10;0.10;;;;;;;6.99;100.00;94127.84;4980824;28;20070;-78
2022/11/17 07:57:15;;;;;;;0.10;0.10;;;;;;;7.07;100.00;94118.47;4969793;28;20057;-78
2022/11/17 08:00:02;;;;;;;0.10;0.10;;;;;;;7.04;100.00;94131.56;4981129;28;20132;-78
2022/11/17 08:03:02;;;;;;;0.10;0.10;;;;;;;7.14;100.00;94128.78;4977915;28;20070;-78
2022/11/17 08:05:48;;;;;;;0.10;0.10;;;;;;;7.13;100.00;94127.19;4941808;28;20045;-77
2022/11/17 08:08:36;;;;;;;0.10;0.10;;;;;;;7.14;100.00;94145.53;4942714;28;20381;-78
2022/11/17 08:11:22;;;;;;;0.10;0.10;;;;;;;7.19;100.00;94134.84;4946356;28;20508;-77
2022/11/17 08:14:08;;;;;;;0.10;0.10;;;;;;;7.20;100.00;94125.78;4943995;28;20061;-79
2022/11/17 08:16:54;;;;;;;0.10;0.10;;;;;;;7.23;100.00;94141.16;4943690;28;20522;-79
2022/11/17 08:19:41;;;;;;;0.10;0.10;;;;;;;7.28;100.00;94129.69;4943257;28;20590;-78
2022/11/17 08:22:27;;;;;;;0.10;0.10;;;;;;;7.28;100.00;94124.34;4940381;28;20487;-78
2022/11/17 08:25:13;;;;;;;0.10;0.10;;;;;;;7.36;100.00;94136.25;4940924;28;20195;-79
2022/11/17 08:27:58;;;;;;;0.10;0.10;;;;;;;7.41;100.00;94144.19;4949297;28;20157;-79
2022/11/17 08:30:44;;;;;;;0.10;0.10;;;;;;;7.34;100.00;94146.38;4944394;28;20102;-79
2022/11/17 08:33:31;;;;;;;0.10;0.10;;;;;;;7.45;100.00;94132.66;4933569;28;20058;-78
2022/11/17 08:36:17;;;;;;;0.10;0.10;;;;;;;7.53;100.00;94145.34;4944221;28;20139;-77
2022/11/17 08:39:03;;;;;;;0.10;0.10;;;;;;;7.67;100.00;94153.41;4943413;28;20047;-78
2022/11/17 08:41:50;;;;;;;0.10;0.10;;;;;;;7.59;100.00;94140.75;4947847;28;20038;-79
2022/11/17 08:44:38;;;;;;;0.10;0.10;;;;;;;7.56;100.00;94149.31;4944550;28;20569;-79
2022/11/17 08:47:24;;;;;;;0.10;0.10;;;;;;;7.60;100.00;94173.47;4945461;28;20311;-78
2022/11/17 08:50:10;;;;;;;0.10;0.10;;;;;;;7.65;100.00;94182.22;4944369;28;20043;-79
2022/11/17 08:52:56;;;;;;;0.10;0.10;;;;;;;7.76;100.00;94164.22;4944283;28;20767;-78
2022/11/17 08:55:42;;;;;;;0.10;0.10;;;;;;;7.79;100.00;94190.28;4946795;28;20038;-78
2022/11/17 08:58:28;;;;;;;0.17;0.17;;;;;;;7.93;100.00;94183.16;4943591;28;20043;-80
2022/11/17 09:01:14;;;;;;;0.10;0.10;;;;;;;8.17;100.00;94185.81;4941212;28;20039;-79
2022/11/17 09:04:00;;;;;;;0.15;0.15;;;;;;;8.14;100.00;94172.25;4957378;28;20061;-78
2022/11/17 09:06:46;;;;;;;0.20;0.20;;;;;;;8.36;100.00;94185.81;4983635;28;20052;-77
2022/11/17 09:09:32;;;;;;;0.10;0.10;;;;;;;8.44;100.00;94192.38;4984257;28;20441;-77
2022/11/17 09:12:18;;;;;;;0.10;0.10;;;;;;;8.51;100.00;94187.47;4980340;28;20478;-78
2022/11/17 09:15:04;;;;;;;0.10;0.10;;;;;;;8.60;100.00;94191.84;4980949;28;20177;-79
2022/11/17 09:17:50;;;;;;;0.10;0.10;;;;;;;8.62;100.00;94192.34;4981460;28;20524;-77
2022/11/17 09:20:36;;;;;;;0.10;0.10;;;;;;;8.67;100.00;94202.13;4984911;28;20076;-79
2022/11/17 09:23:22;;;;;;;0.10;0.10;;;;;;;8.78;100.00;94200.09;4978064;28;20065;-79
2022/11/17 09:26:10;;;;;;;0.10;0.10;;;;;;;8.78;100.00;94206.22;4980797;28;20034;-78
2022/11/17 09:29:01;;;;;;;0.10;0.10;;;;;;;8.84;100.00;94212.25;4980368;28;20101;-79
2022/11/17 09:31:46;;;;;;;0.10;0.10;;;;;;;8.82;100.00;94217.91;4980971;28;20169;-77
2022/11/17 09:34:32;;;;;;;0.15;0.15;;;;;;;8.79;100.00;94226.47;4982571;28;20045;-77
2022/11/17 09:37:19;;;;;;;0.10;0.10;;;;;;;8.82;100.00;94219.78;4980492;28;20088;-76
2022/11/17 09:40:06;;;;;;;0.10;0.10;;;;;;;8.72;100.00;94226.06;4982843;28;20038;-79
2022/11/17 09:42:52;;;;;;;0.10;0.10;;;;;;;8.68;100.00;94235.72;4981620;28;20545;-78
2022/11/17 09:45:38;;;;;;;0.10;0.10;;;;;;;8.58;100.00;94242.00;4983570;28;20077;-78
2022/11/17 09:48:47;;;;;;;0.13;0.10;;;;;;;8.68;100.00;94245.59;4980263;28;20445;-77
2022/11/17 09:51:37;;;;;;;0.22;0.20;;;;;;;8.73;100.00;94243.66;4981596;28;20146;-78
2022/11/17 09:54:56;;;;;;;0.15;0.15;;;;;;;8.80;100.00;94248.63;4982326;28;20050;-76
2022/11/17 09:57:47;;;;;;;0.10;0.10;;;;;;;8.88;100.00;94243.41;4979218;28;20367;-76
2022/11/17 10:00:35;;;;;;;0.10;0.10;;;;;;;8.81;100.00;94250.19;4981756;28;20490;-76
2022/11/17 10:03:28;;;;;;;0.10;0.10;;;;;;;9.02;100.00;94247.97;4979371;28;20050;-78
2022/11/17 10:06:31;;;;;;;0.10;0.10;;;;;;;9.14;100.00;94256.31;4981529;28;20053;-78
2022/11/17 10:09:27;;;;;;;0.10;0.10;;;;;;;8.98;100.00;94253.13;4981264;28;20046;-78
2022/11/17 10:12:18;;;;;;;0.10;0.10;;;;;;;9.07;100.00;94258.56;4982534;28;20403;-78
2022/11/17 10:15:29;;;;;;;0.10;0.10;;;;;;;9.28;100.00;94264.38;4981321;28;20034;-78
2022/11/17 10:18:16;;;;;;;0.10;0.10;;;;;;;9.47;100.00;94273.91;4979729;28;20038;-78
2022/11/17 10:21:05;;;;;;;0.17;0.17;;;;;;;9.46;100.00;94271.53;4984055;28;20029;-76
2022/11/17 10:23:58;;;;;;;0.10;0.10;;;;;;;9.42;100.00;94273.22;4980605;28;20668;-79
2022/11/17 10:26:46;;;;;;;0.20;0.20;;;;;;;9.28;100.00;94273.16;4980164;28;20048;-79
2022/11/17 10:29:32;;;;;;;0.10;0.10;;;;;;;9.45;100.00;94270.72;4979688;28;20044;-78
2022/11/17 10:32:18;;;;;;;0.10;0.10;;;;;;;9.41;100.00;94269.72;4977939;28;20057;-79
2022/11/17 10:35:18;;;;;;;0.10;0.10;;;;;;;9.59;100.00;94270.75;4981280;28;20046;-79
2022/11/17 10:38:19;;;;;;;0.20;0.20;;;;;;;9.74;100.00;94254.47;4981872;28;20062;-76
2022/11/17 10:41:04;;;;;;;0.15;0.15;;;;;;;9.75;100.00;94260.59;4982642;28;20042;-77
2022/11/17 10:43:58;;;;;;;0.10;0.10;;;;;;;9.71;100.00;94257.69;4980431;28;20046;-79
2022/11/17 10:46:58;;;;;;;0.10;0.10;;;;;;;9.36;100.00;94272.50;4980865;28;20262;-77
2022/11/17 10:49:44;;;;;;;0.10;0.10;;;;;;;9.40;100.00;94262.00;4981574;28;20046;-79
2022/11/17 10:52:29;;;;;;;0.10;0.10;;;;;;;9.29;100.00;94257.94;4971203;28;20072;-78
2022/11/17 10:55:32;;;;;;;0.20;0.20;;;;;;;9.12;100.00;94253.16;4981219;28;20268;-80
2022/11/17 10:58:25;;;;;;;0.20;0.20;;;;;;;9.04;100.00;94269.84;4981847;28;20141;-78
2022/11/17 11:01:12;;;;;;;0.10;0.10;;;;;;;8.71;100.00;94253.78;4980863;28;20088;-77
2022/11/17 11:03:58;;;;;;;0.10;0.10;;;;;;;8.68;100.00;94264.25;4979611;28;20141;-79
2022/11/17 11:06:44;;;;;;;0.10;0.10;;;;;;;8.60;100.00;94260.34;4979453;28;20042;-77
2022/11/17 11:09:31;;;;;;;0.10;0.10;;;;;;;8.71;100.00;94250.31;4978619;28;20046;-80
2022/11/17 11:12:43;;;;;;;0.10;0.10;;;;;;;8.70;100.00;94243.41;4977085;28;20164;-79
2022/11/17 11:15:34;;;;;;;0.10;0.10;;;;;;;8.58;100.00;94258.00;4980275;28;20236;-78
2022/11/17 11:18:20;;;;;;;0.10;0.10;;;;;;;8.82;100.00;94257.09;4980456;28;20051;-76
2022/11/17 11:21:23;;;;;;;0.17;0.17;;;;;;;8.98;100.00;94249.66;4968936;28;20046;-78
2022/11/17 11:24:14;;;;;;;0.10;0.10;;;;;;;9.05;100.00;94266.09;4978762;28;20038;-76
2022/11/17 11:27:25;;;;;;;0.10;0.10;;;;;;;9.03;100.00;94268.25;4978588;28;20046;-76
2022/11/17 11:30:16;;;;;;;0.17;0.10;;;;;;;8.94;100.00;94281.44;4981181;28;20409;-77
2022/11/17 11:33:47;;;;;;;0.10;0.10;;;;;;;9.08;100.00;94290.28;4978779;28;20289;-76
2022/11/17 11:36:51;;;;;;;0.20;0.20;;;;;;;8.96;100.00;94279.28;4258399;28;10000240;-78
2022/11/17 11:40:20;;;;;;;0.10;0.10;;;;;;;9.39;100.00;94303.13;4979885;28;20391;-79
2022/11/17 11:43:28;;;;;;;0.10;0.10;;;;;;;9.37;100.00;94300.78;4965691;28;20039;-77
2022/11/17 11:46:23;;;;;;;0.10;0.10;;;;;;;9.60;100.00;94299.03;4981186;28;20553;-77
2022/11/17 11:49:26;;;;;;;0.10;0.10;;;;;;;9.86;100.00;94302.03;4977666;28;20042;-77
2022/11/17 11:52:20;;;;;;;0.10;0.10;;;;;;;9.73;100.00;94290.28;4980106;28;20543;-77
2022/11/17 11:55:19;;;;;;;0.10;0.10;;;;;;;9.34;100.00;94301.38;4980940;28;20042;-78
2022/11/17 11:58:16;;;;;;;0.10;0.10;;;;;;;9.14;100.00;94305.16;4962315;28;20418;-78
2022/11/17 12:01:06;;;;;;;0.10;0.10;;;;;;;8.88;100.00;94299.41;4979230;28;20272;-78
2022/11/17 12:04:26;;;;;;;0.10;0.10;;;;;;;8.82;100.00;94313.13;4977884;28;20279;-76
2022/11/17 12:07:28;;;;;;;0.20;0.20;;;;;;;8.82;100.00;94305.09;4949489;28;20046;-78
2022/11/17 12:10:29;;;;;;;0.10;0.10;;;;;;;8.95;100.00;94307.06;4977795;28;20177;-78
2022/11/17 12:13:19;;;;;;;0.10;0.10;;;;;;;8.95;100.00;94304.38;4969831;28;20172;-78
2022/11/17 12:16:25;;;;;;;0.13;0.10;;;;;;;9.12;100.00;94312.66;4975813;28;20124;-76
2022/11/17 12:19:52;;;;;;;0.10;0.10;;;;;;;9.18;100.00;94306.16;4976446;28;20480;-77
2022/11/17 12:22:53;;;;;;;0.10;0.10;;;;;;;9.24;100.00;94308.72;4976829;28;20029;-77
2022/11/17 12:26:06;;;;;;;0.10;0.10;;;;;;;9.39;100.00;94305.81;4976829;28;20109;-78
2022/11/17 12:29:21;;;;;;;0.10;0.10;;;;;;;9.56;100.00;94307.91;4960359;28;20454;-77
2022/11/17 12:32:07;;;;;;;0.10;0.10;;;;;;;9.47;100.00;94308.59;4975053;28;20042;-78
2022/11/17 12:35:28;;;;;;;0.20;0.20;;;;;;;9.59;100.00;94316.16;4984166;28;20477;-78
2022/11/17 12:38:14;;;;;;;0.10;0.10;;;;;;;9.44;100.00;94313.75;4981306;28;20635;-79
2022/11/17 12:41:00;;;;;;;0.10;0.10;;;;;;;9.55;100.00;94315.16;4985530;28;20478;-76
2022/11/17 12:43:46;;;;;;;0.20;0.20;;;;;;;9.37;100.00;94321.34;4983222;28;20745;-77
2022/11/17 12:46:32;;;;;;;0.10;0.10;;;;;;;9.53;100.00;94316.53;4982180;28;20042;-75
2022/11/17 12:49:34;;;;;;;0.10;0.10;;;;;;;9.51;100.00;94318.72;4982308;28;20589;-78
2022/11/17 12:52:33;;;;;;;0.10;0.10;;;;;;;9.47;100.00;94321.94;4983847;28;20058;-75
2022/11/17 12:55:31;;;;;;;0.20;0.20;;;;;;;9.44;100.00;94333.22;4953270;28;20152;-80
2022/11/17 12:58:23;;;;;;;0.10;0.10;;;;;;;9.29;100.00;94327.34;4980269;28;20208;-79
2022/11/17 13:01:39;;;;;;;0.10;0.10;;;;;;;9.33;100.00;94336.34;4984646;28;20050;-77
2022/11/17 13:04:42;;;;;;;0.10;0.10;;;;;;;9.26;100.00;94336.72;4983123;28;20479;-77
2022/11/17 13:07:28;;;;;;;0.10;0.10;;;;;;;9.34;100.00;94340.59;4980675;28;20046;-77
2022/11/17 13:10:29;;;;;;;0.20;0.20;;;;;;;9.43;100.00;94341.53;4984236;28;20041;-79
2022/11/17 13:13:22;;;;;;;0.20;0.20;;;;;;;9.56;100.00;94337.28;4981558;28;20637;-78
2022/11/17 13:16:18;;;;;;;0.10;0.10;;;;;;;9.48;100.00;94350.22;4984178;28;20030;-77
2022/11/17 13:19:26;;;;;;;0.10;0.10;;;;;;;9.46;100.00;94340.94;4967913;28;20105;-78
2022/11/17 13:22:17;;;;;;;0.10;0.10;;;;;;;9.56;100.00;94339.97;4979871;28;20176;-76
2022/11/17 13:25:22;;;;;;;0.10;0.10;;;;;;;9.34;100.00;94341.41;4981726;28;20074;-77
2022/11/17 13:28:29;;;;;;;0.17;0.17;;;;;;;9.33;100.00;94331.78;4981736;28;20049;-78
2022/11/17 13:31:18;;;;;;;0.10;0.10;;;;;;;9.41;100.00;94319.66;4981807;28;20048;-78
2022/11/17 13:34:11;;;;;;;0.10;0.10;;;;;;;9.53;100.00;94328.00;4971898;28;20038;-77
2022/11/17 13:36:59;;;;;;;0.20;0.20;;;;;;;9.60;100.00;94336.44;4981020;28;20121;-76
2022/11/17 13:40:19;;;;;;;0.10;0.10;;;;;;;9.60;100.00;94328.41;4981736;28;20135;-76
2022/11/17 13:43:11;;;;;;;0.10;0.10;;;;;;;9.72;100.00;94334.06;4984667;28;20044;-76
2022/11/17 13:45:57;;;;;;;0.20;0.20;;;;;;;9.94;100.00;94328.06;4982862;28;20390;-77
2022/11/17 13:48:45;;;;;;;0.28;0.20;;;;;;;10.22;100.00;94323.56;4983016;28;20042;-77
2022/11/17 13:51:37;;;;;;;0.10;0.10;;;;;;;10.44;100.00;94330.09;4983157;28;20069;-77
2022/11/17 13:54:23;;;;;;;0.20;0.20;;;;;;;10.63;100.00;94336.09;4969063;28;20050;-77
2022/11/17 13:57:24;;;;;;;0.20;0.20;;;;;;;10.76;100.00;94324.59;4979167;28;20510;-77
2022/11/17 14:00:17;;;;;;;0.10;0.10;;;;;;;10.63;100.00;94340.66;4982666;28;20046;-78